Time;durP1;ratioP1;P1;durP2;ratioP2;P2;SDS_P1;SDS_P2;PMS_P1;PMS_P2;Temp;Humidity;BMP_temperature;BMP_pressure;BME280_temperature;BME280_humidity;BME280_pressure;Samples;Min_cycle;Max_cycle;Signal;HPM_P1;HPM_P2
2022/07/29 00:02:22;;;;;;;;;;;19.40;90.50;;;;;;4975313;28;20012;-79
2022/07/29 00:04:49;;;;;;;;;;;19.40;90.60;;;;;;4968808;28;19929;-78
2022/07/29 00:07:17;;;;;;;;;;;19.40;90.70;;;;;;4971554;28;20408;-79
2022/07/29 00:09:44;;;;;;;;;;;19.40;90.70;;;;;;4970634;28;19997;-80
2022/07/29 00:12:11;;;;;;;;;;;19.40;90.70;;;;;;4956527;28;20601;-78
2022/07/29 00:14:38;;;;;;;;;;;19.40;90.70;;;;;;4992373;28;19930;-80
2022/07/29 00:17:05;;;;;;;;;;;19.40;90.80;;;;;;4975350;28;20470;-78
2022/07/29 00:19:33;;;;;;;;;;;19.30;91.10;;;;;;4974641;28;19975;-81
2022/07/29 00:22:00;;;;;;;;;;;19.40;90.80;;;;;;4975423;28;19962;-79
2022/07/29 00:24:29;;;;;;;;;;;19.40;90.80;;;;;;4974899;28;20020;-79
2022/07/29 00:26:55;;;;;;;;;;;19.40;90.80;;;;;;4975654;28;20348;-79
2022/07/29 00:29:23;;;;;;;;;;;19.40;91.20;;;;;;4974599;28;19934;-80
2022/07/29 00:31:49;;;;;;;;;;;19.30;90.80;;;;;;4991996;28;19949;-78
2022/07/29 00:37:01;;;;;;;;;;;19.30;90.90;;;;;;4970507;28;19934;-80
2022/07/29 00:39:30;;;;;;;;;;;19.20;90.90;;;;;;4973760;28;19930;-78
2022/07/29 00:41:56;;;;;;;;;;;19.20;90.90;;;;;;4993799;28;19926;-80
2022/07/29 00:44:23;;;;;;;;;;;19.20;91.00;;;;;;4974276;28;19977;-79
2022/07/29 00:46:51;;;;;;;;;;;19.20;91.10;;;;;;4987155;28;19930;-78
2022/07/29 00:49:18;;;;;;;;;;;19.10;91.00;;;;;;4962227;28;19926;-79
2022/07/29 00:51:45;;;;;;;;;;;19.00;91.10;;;;;;4990374;28;19929;-80
2022/07/29 00:54:13;;;;;;;;;;;19.00;91.20;;;;;;4972123;28;19980;-79
2022/07/29 00:56:41;;;;;;;;;;;20.20;91.90;;;;;;4959273;28;19930;-80
2022/07/29 00:59:08;;;;;;;;;;;19.00;91.60;;;;;;4969263;28;19961;-79
2022/07/29 01:01:35;;;;;;;;;;;19.00;91.50;;;;;;4987824;28;20613;-79
2022/07/29 01:04:02;;;;;;;;;;;18.90;91.50;;;;;;4986087;28;20553;-79
2022/07/29 01:06:29;;;;;;;;;;;18.90;91.60;;;;;;4988603;28;20057;-79
2022/07/29 01:08:56;;;;;;;;;;;18.90;91.70;;;;;;4966918;28;19933;-79
2022/07/29 01:11:23;;;;;;;;;;;18.90;91.80;;;;;;4974089;28;19926;-80
2022/07/29 01:13:52;;;;;;;;;;;18.90;91.80;;;;;;4968395;28;19930;-78
2022/07/29 01:16:23;;;;;;;;;;;18.90;91.90;;;;;;4967372;28;19937;-79
2022/07/29 01:18:54;;;;;;;;;;;18.90;91.80;;;;;;4967351;28;19937;-79
2022/07/29 01:21:36;;;;;;;;;;;18.90;91.80;;;;;;4974961;28;19937;-80
2022/07/29 01:24:12;;;;;;;;;;;18.80;91.80;;;;;;4980869;28;19950;-79
2022/07/29 01:26:43;;;;;;;;;;;18.80;91.80;;;;;;4994936;28;19926;-79
2022/07/29 01:29:19;;;;;;;;;;;18.80;91.90;;;;;;4974962;28;19930;-80
2022/07/29 01:31:49;;;;;;;;;;;18.80;92.00;;;;;;4974179;28;19933;-79
2022/07/29 01:34:19;;;;;;;;;;;18.80;92.00;;;;;;4974024;28;20356;-79
2022/07/29 01:36:49;;;;;;;;;;;18.80;92.10;;;;;;4992476;28;19930;-79
2022/07/29 01:39:19;;;;;;;;;;;18.80;91.70;;;;;;4975275;28;19930;-82
2022/07/29 01:41:49;;;;;;;;;;;18.80;92.10;;;;;;4998083;28;19949;-81
2022/07/29 01:44:18;;;;;;;;;;;18.80;92.10;;;;;;4982615;28;19949;-81
2022/07/29 01:46:56;;;;;;;;;;;18.80;92.20;;;;;;4981327;28;19929;-81
2022/07/29 01:49:28;;;;;;;;;;;18.80;92.10;;;;;;4961995;28;21084;-80
2022/07/29 01:51:57;;;;;;;;;;;18.80;92.20;;;;;;4975107;28;19930;-80
2022/07/29 01:54:27;;;;;;;;;;;18.80;92.20;;;;;;4991092;28;19926;-78
2022/07/29 01:56:56;;;;;;;;;;;18.80;92.20;;;;;;4975758;28;19949;-79
2022/07/29 01:59:24;;;;;;;;;;;18.80;92.20;;;;;;5000858;28;19957;-79
2022/07/29 02:01:54;;;;;;;;;;;18.80;92.20;;;;;;4977429;28;19934;-82
2022/07/29 02:04:21;;;;;;;;;;;18.80;92.20;;;;;;4980866;28;19936;-82
2022/07/29 02:06:49;;;;;;;;;;;18.80;92.60;;;;;;4991844;28;19944;-80
2022/07/29 02:09:17;;;;;;;;;;;18.80;92.30;;;;;;4976791;28;19929;-85
2022/07/29 02:11:48;;;;;;;;;;;18.70;92.40;;;;;;4993944;28;19916;-86
2022/07/29 02:14:16;;;;;;;;;;;18.70;92.50;;;;;;4988624;28;19930;-86
2022/07/29 02:16:49;;;;;;;;;;;18.70;92.50;;;;;;4983969;28;19933;-85
2022/07/29 02:19:20;;;;;;;;;;;19.70;92.60;;;;;;4994792;28;20389;-87
2022/07/29 02:21:47;;;;;;;;;;;18.60;92.50;;;;;;4976869;28;19996;-85
2022/07/29 02:24:15;;;;;;;;;;;18.70;92.50;;;;;;4985245;28;19947;-85
2022/07/29 02:26:43;;;;;;;;;;;18.70;92.60;;;;;;4998788;28;19934;-81
2022/07/29 02:29:12;;;;;;;;;;;18.60;92.70;;;;;;4979942;28;20393;-83
2022/07/29 02:31:40;;;;;;;;;;;18.60;92.70;;;;;;4997751;28;20032;-80
2022/07/29 02:34:08;;;;;;;;;;;18.70;92.90;;;;;;4982765;28;19938;-82
2022/07/29 02:36:37;;;;;;;;;;;18.70;93.20;;;;;;4975654;28;20009;-83
2022/07/29 02:39:04;;;;;;;;;;;18.80;93.40;;;;;;4981604;28;19930;-82
2022/07/29 02:41:34;;;;;;;;;;;18.90;93.50;;;;;;4980223;28;20453;-83
2022/07/29 02:44:03;;;;;;;;;;;18.90;93.30;;;;;;4981102;28;19996;-83
2022/07/29 02:46:31;;;;;;;;;;;19.00;93.20;;;;;;4973434;28;19930;-82
2022/07/29 02:49:00;;;;;;;;;;;19.00;93.10;;;;;;4978822;28;19930;-84
2022/07/29 02:51:29;;;;;;;;;;;19.00;93.10;;;;;;4996997;28;19926;-79
2022/07/29 02:53:58;;;;;;;;;;;18.90;93.10;;;;;;4978003;28;19933;-80
2022/07/29 02:56:28;;;;;;;;;;;18.90;93.20;;;;;;4976149;28;19996;-79
2022/07/29 02:58:56;;;;;;;;;;;18.90;93.20;;;;;;4991689;28;19929;-77
2022/07/29 03:01:23;;;;;;;;;;;18.90;93.10;;;;;;4992500;28;19936;-79
2022/07/29 03:03:52;;;;;;;;;;;18.80;93.20;;;;;;4988093;28;19996;-79
2022/07/29 03:06:21;;;;;;;;;;;18.70;93.20;;;;;;4975580;28;19988;-77
2022/07/29 03:08:48;;;;;;;;;;;18.70;93.20;;;;;;4977185;28;19929;-79
2022/07/29 03:11:17;;;;;;;;;;;18.60;93.30;;;;;;4967248;28;19926;-79
2022/07/29 03:13:44;;;;;;;;;;;18.60;93.40;;;;;;4975936;28;20012;-79
2022/07/29 03:16:12;;;;;;;;;;;18.50;93.40;;;;;;4977239;28;19972;-79
2022/07/29 03:18:40;;;;;;;;;;;18.90;93.70;;;;;;4993209;28;20000;-79
2022/07/29 03:21:07;;;;;;;;;;;18.40;93.50;;;;;;4976682;28;19972;-79
2022/07/29 03:23:34;;;;;;;;;;;18.30;93.60;;;;;;4975082;28;20362;-78
2022/07/29 03:26:00;;;;;;;;;;;18.30;93.60;;;;;;4994690;28;20344;-80
2022/07/29 03:28:30;;;;;;;;;;;18.30;93.80;;;;;;4991498;28;19933;-78
2022/07/29 03:30:57;;;;;;;;;;;18.30;94.20;;;;;;4984944;28;19930;-78
2022/07/29 03:33:24;;;;;;;;;;;18.20;94.00;;;;;;4963451;28;19965;-78
2022/07/29 03:35:51;;;;;;;;;;;18.20;94.10;;;;;;4991558;28;20522;-78
2022/07/29 03:38:18;;;;;;;;;;;18.20;94.20;;;;;;4991536;28;19937;-78
2022/07/29 03:40:47;;;;;;;;;;;18.20;94.30;;;;;;4994767;28;19934;-78
2022/07/29 03:43:16;;;;;;;;;;;18.20;94.80;;;;;;4995938;28;19930;-79
2022/07/29 03:45:49;;;;;;;;;;;18.30;95.00;;;;;;4972885;28;19980;-78
2022/07/29 03:48:17;;;;;;;;;;;18.30;94.90;;;;;;4980402;28;20589;-78
2022/07/29 03:50:44;;;;;;;;;;;18.30;95.60;;;;;;4977592;28;19930;-78
2022/07/29 03:53:11;;;;;;;;;;;18.30;95.70;;;;;;4993772;28;20369;-78
2022/07/29 03:55:41;;;;;;;;;;;18.30;95.70;;;;;;4993488;28;20000;-78
2022/07/29 03:58:08;;;;;;;;;;;18.30;95.60;;;;;;4976762;28;19933;-78
2022/07/29 04:00:35;;;;;;;;;;;18.20;95.60;;;;;;4993346;28;20463;-78
2022/07/29 04:03:04;;;;;;;;;;;18.20;95.60;;;;;;4970350;28;19926;-78
2022/07/29 04:05:32;;;;;;;;;;;18.20;95.70;;;;;;4971746;28;20032;-77
2022/07/29 04:07:58;;;;;;;;;;;18.10;96.20;;;;;;4978792;28;20040;-79
2022/07/29 04:10:26;;;;;;;;;;;17.90;96.20;;;;;;4976606;28;19965;-78
2022/07/29 04:12:53;;;;;;;;;;;17.50;96.60;;;;;;4997023;28;19980;-78
2022/07/29 04:15:20;;;;;;;;;;;17.20;97.10;;;;;;4977354;28;19925;-78
2022/07/29 04:17:47;;;;;;;;;;;16.60;97.20;;;;;;4985395;23;19936;-76
2022/07/29 04:20:15;;;;;;;;;;;16.50;97.00;;;;;;4988643;28;19930;-75
2022/07/29 04:22:42;;;;;;;;;;;16.40;98.40;;;;;;4980930;28;19944;-76
2022/07/29 04:25:09;;;;;;;;;;;16.20;99.00;;;;;;4986466;28;19933;-77
2022/07/29 04:27:37;;;;;;;;;;;16.00;99.40;;;;;;4990744;28;19929;-77
2022/07/29 04:30:22;;;;;;;;;;;15.80;99.80;;;;;;4986580;28;19938;-77
2022/07/29 04:32:49;;;;;;;;;;;15.40;99.90;;;;;;4981523;28;19930;-76
2022/07/29 04:35:17;;;;;;;;;;;15.60;99.90;;;;;;4986849;28;19938;-75
2022/07/29 04:37:43;;;;;;;;;;;14.90;99.90;;;;;;5004596;28;19937;-78
2022/07/29 04:40:11;;;;;;;;;;;14.80;99.90;;;;;;5009010;28;19930;-76
2022/07/29 04:42:38;;;;;;;;;;;14.70;99.90;;;;;;4974154;28;20021;-77
2022/07/29 04:45:05;;;;;;;;;;;14.70;99.90;;;;;;4984975;28;20020;-77
2022/07/29 04:47:32;;;;;;;;;;;14.60;99.90;;;;;;4982410;28;20280;-76
2022/07/29 04:49:59;;;;;;;;;;;14.50;99.90;;;;;;4987824;28;19933;-76
2022/07/29 04:52:27;;;;;;;;;;;14.40;99.90;;;;;;4976137;28;19933;-75
2022/07/29 04:54:53;;;;;;;;;;;14.30;99.90;;;;;;4981692;28;19992;-75
2022/07/29 04:57:20;;;;;;;;;;;14.20;99.90;;;;;;4983887;28;19940;-75
2022/07/29 04:59:47;;;;;;;;;;;14.10;99.90;;;;;;4976136;28;19937;-76
2022/07/29 05:02:13;;;;;;;;;;;14.10;99.90;;;;;;4986932;28;20465;-76
2022/07/29 05:04:40;;;;;;;;;;;14.00;99.90;;;;;;4988465;28;20111;-75
2022/07/29 05:07:07;;;;;;;;;;;14.00;99.90;;;;;;4981836;28;19999;-75
2022/07/29 05:09:35;;;;;;;;;;;14.00;99.90;;;;;;4978007;28;19945;-76
2022/07/29 05:12:02;;;;;;;;;;;14.10;99.90;;;;;;4989160;28;20347;-76
2022/07/29 05:14:28;;;;;;;;;;;14.10;99.90;;;;;;4980733;28;19930;-75
2022/07/29 05:16:56;;;;;;;;;;;14.20;99.90;;;;;;4993021;28;19930;-76
2022/07/29 05:19:23;;;;;;;;;;;14.30;99.90;;;;;;4982192;28;19937;-75
2022/07/29 05:21:50;;;;;;;;;;;14.30;99.90;;;;;;4988207;28;20434;-76
2022/07/29 05:24:17;;;;;;;;;;;14.40;99.90;;;;;;4983686;28;19930;-75
2022/07/29 05:26:45;;;;;;;;;;;14.40;99.90;;;;;;4977321;28;19997;-75
2022/07/29 05:29:11;;;;;;;;;;;14.50;99.90;;;;;;4970422;28;19926;-76
2022/07/29 05:31:38;;;;;;;;;;;14.50;99.90;;;;;;4980797;28;19936;-77
2022/07/29 05:34:05;;;;;;;;;;;14.50;99.90;;;;;;4979272;28;19952;-75
2022/07/29 05:36:31;;;;;;;;;;;14.40;99.90;;;;;;4972137;28;19926;-75
2022/07/29 05:38:58;;;;;;;;;;;14.40;99.90;;;;;;4987730;28;20027;-76
2022/07/29 05:41:25;;;;;;;;;;;14.40;99.90;;;;;;4982244;28;20362;-76
2022/07/29 05:43:53;;;;;;;;;;;14.50;99.90;;;;;;4986407;28;19929;-74
2022/07/29 05:46:20;;;;;;;;;;;14.50;99.90;;;;;;4980927;28;19937;-76
2022/07/29 05:48:47;;;;;;;;;;;14.50;99.90;;;;;;4977226;28;19929;-76
2022/07/29 05:51:13;;;;;;;;;;;14.60;99.90;;;;;;5002561;28;20288;-75
2022/07/29 05:53:40;;;;;;;;;;;14.60;99.90;;;;;;4998330;28;20437;-76
2022/07/29 05:56:08;;;;;;;;;;;14.50;99.90;;;;;;4978170;28;20387;-76
2022/07/29 05:58:34;;;;;;;;;;;14.40;99.90;;;;;;4983316;28;19936;-76
2022/07/29 06:01:03;;;;;;;;;;;14.40;99.90;;;;;;4997469;28;20315;-76
2022/07/29 06:03:30;;;;;;;;;;;14.30;99.90;;;;;;4984087;28;20395;-76
2022/07/29 06:05:56;;;;;;;;;;;14.40;99.90;;;;;;4985654;28;19969;-75
2022/07/29 06:08:23;;;;;;;;;;;14.40;99.90;;;;;;4979011;28;20483;-75
2022/07/29 06:10:50;;;;;;;;;;;14.40;99.90;;;;;;5000264;28;20459;-74
2022/07/29 06:13:16;;;;;;;;;;;14.50;99.90;;;;;;4979158;28;19996;-75
2022/07/29 06:15:43;;;;;;;;;;;14.50;99.90;;;;;;4985158;28;20470;-75
2022/07/29 06:18:13;;;;;;;;;;;14.60;99.90;;;;;;4983306;28;19930;-75
2022/07/29 06:20:39;;;;;;;;;;;14.80;99.90;;;;;;4980030;28;19929;-74
2022/07/29 06:23:06;;;;;;;;;;;15.00;99.90;;;;;;4979262;28;19930;-75
2022/07/29 06:25:34;;;;;;;;;;;15.30;99.90;;;;;;4983804;28;19926;-76
2022/07/29 06:28:01;;;;;;;;;;;15.70;99.90;;;;;;4982165;28;19930;-75
2022/07/29 06:30:28;;;;;;;;;;;16.00;99.90;;;;;;4985675;28;19930;-75
2022/07/29 06:32:55;;;;;;;;;;;16.30;99.90;;;;;;4977523;28;19926;-72
2022/07/29 06:35:23;;;;;;;;;;;16.50;99.90;;;;;;4982918;28;19940;-73
2022/07/29 06:37:49;;;;;;;;;;;16.60;99.90;;;;;;4985902;28;20403;-74
2022/07/29 06:43:00;;;;;;;;;;;16.90;99.90;;;;;;4980958;28;19921;-75
2022/07/29 06:45:27;;;;;;;;;;;16.90;99.90;;;;;;4987305;28;19941;-78
2022/07/29 06:47:54;;;;;;;;;;;16.90;99.90;;;;;;4980006;28;19933;-77
2022/07/29 06:50:21;;;;;;;;;;;16.90;99.90;;;;;;5003472;28;19948;-77
2022/07/29 06:52:49;;;;;;;;;;;16.90;99.90;;;;;;4976096;28;20335;-76
2022/07/29 06:55:18;;;;;;;;;;;16.80;99.90;;;;;;4984314;28;19930;-76
2022/07/29 06:57:46;;;;;;;;;;;16.80;99.90;;;;;;4982533;28;19926;-77
2022/07/29 07:00:13;;;;;;;;;;;16.70;99.90;;;;;;4980311;28;19976;-75
2022/07/29 07:02:40;;;;;;;;;;;16.80;99.90;;;;;;4980936;28;19934;-74
2022/07/29 07:05:07;;;;;;;;;;;16.80;99.90;;;;;;4983767;28;20406;-73
2022/07/29 07:07:34;;;;;;;;;;;16.70;99.90;;;;;;4986889;28;19937;-74
2022/07/29 07:10:02;;;;;;;;;;;16.70;99.90;;;;;;4990638;28;19930;-76
2022/07/29 07:12:29;;;;;;;;;;;16.70;99.90;;;;;;4991854;28;19926;-76
2022/07/29 07:14:55;;;;;;;;;;;16.80;99.90;;;;;;4984077;28;19926;-75
2022/07/29 07:17:22;;;;;;;;;;;16.80;99.90;;;;;;4984297;28;19930;-77
2022/07/29 07:19:49;;;;;;;;;;;16.90;99.90;;;;;;4976179;28;19930;-76
2022/07/29 07:22:16;;;;;;;;;;;16.90;99.90;;;;;;4985549;28;19930;-75
2022/07/29 07:24:43;;;;;;;;;;;17.00;99.90;;;;;;4986821;28;20651;-75
2022/07/29 07:27:11;;;;;;;;;;;16.90;99.90;;;;;;4992760;28;19926;-75
2022/07/29 07:29:40;;;;;;;;;;;17.00;99.90;;;;;;4981505;28;19933;-74
2022/07/29 07:32:07;;;;;;;;;;;17.00;99.90;;;;;;4976240;28;20316;-75
2022/07/29 07:34:34;;;;;;;;;;;16.10;99.90;;;;;;4987511;28;19936;-75
2022/07/29 07:37:00;;;;;;;;;;;17.10;99.90;;;;;;4984723;28;19934;-76
2022/07/29 07:39:27;;;;;;;;;;;17.00;99.90;;;;;;4989790;28;19934;-75
2022/07/29 07:41:54;;;;;;;;;;;17.00;99.90;;;;;;4986731;28;19985;-75
2022/07/29 07:44:22;;;;;;;;;;;17.10;99.90;;;;;;4981246;28;20032;-76
2022/07/29 07:46:49;;;;;;;;;;;17.10;99.90;;;;;;4981427;28;19937;-74
2022/07/29 07:49:16;;;;;;;;;;;17.00;99.90;;;;;;4973888;28;20283;-77
2022/07/29 07:51:42;;;;;;;;;;;17.00;99.90;;;;;;4979079;28;20598;-76
2022/07/29 07:54:09;;;;;;;;;;;16.90;99.90;;;;;;4990033;28;20546;-76
2022/07/29 07:56:36;;;;;;;;;;;16.80;99.90;;;;;;4982212;28;19930;-76
2022/07/29 07:59:02;;;;;;;;;;;16.70;99.90;;;;;;4984863;28;19934;-77
2022/07/29 08:01:31;;;;;;;;;;;16.60;99.90;;;;;;4980911;28;20479;-77
2022/07/29 08:03:57;;;;;;;;;;;16.60;99.90;;;;;;4982527;28;19945;-74
2022/07/29 08:06:25;;;;;;;;;;;16.50;99.90;;;;;;5008119;28;19926;-74
2022/07/29 08:08:52;;;;;;;;;;;16.50;99.90;;;;;;4988504;28;20041;-74
2022/07/29 08:11:18;;;;;;;;;;;16.40;99.90;;;;;;4989697;28;19930;-74
2022/07/29 08:13:46;;;;;;;;;;;16.30;99.90;;;;;;4990202;28;20415;-75
2022/07/29 08:16:17;;;;;;;;;;;17.50;99.90;;;;;;4986426;28;20359;-75
2022/07/29 08:18:56;;;;;;;;;;;16.20;99.90;;;;;;4987749;28;19930;-75
2022/07/29 08:21:25;;;;;;;;;;;16.20;99.90;;;;;;4988862;28;19929;-76
2022/07/29 08:24:42;;;;;;;;;;;16.20;99.90;;;;;;5000647;28;19930;-76
2022/07/29 08:26:41;;;;;;;;;;;16.20;99.90;;;;;;4981415;28;19934;-76
2022/07/29 08:29:10;;;;;;;;;;;;;;;;;;4985972;28;20061;-76
2022/07/29 08:31:37;;;;;;;;;;;16.20;99.90;;;;;;4978418;28;19936;-77
2022/07/29 08:34:08;;;;;;;;;;;16.30;99.90;;;;;;4979138;28;19930;-75
2022/07/29 08:36:36;;;;;;;;;;;16.40;99.90;;;;;;4985432;28;20013;-77
2022/07/29 08:39:05;;;;;;;;;;;16.70;99.90;;;;;;4984349;28;20493;-77
2022/07/29 08:41:33;;;;;;;;;;;17.00;99.90;;;;;;4987099;28;20303;-78
2022/07/29 08:44:00;;;;;;;;;;;17.20;99.90;;;;;;4985721;28;19936;-76
2022/07/29 08:46:32;;;;;;;;;;;17.50;99.90;;;;;;4983711;28;20410;-76
2022/07/29 08:49:00;;;;;;;;;;;17.80;99.90;;;;;;4990926;28;19930;-75
2022/07/29 08:51:29;;;;;;;;;;;17.80;99.90;;;;;;4987145;28;19934;-77
2022/07/29 08:53:56;;;;;;;;;;;18.00;99.90;;;;;;4980586;28;19926;-76
2022/07/29 08:56:22;;;;;;;;;;;18.20;99.90;;;;;;4979997;28;19930;-75
2022/07/29 08:58:50;;;;;;;;;;;18.30;99.90;;;;;;4980059;28;20813;-75
2022/07/29 09:01:17;;;;;;;;;;;18.30;99.90;;;;;;5003205;28;19937;-74
2022/07/29 09:03:45;;;;;;;;;;;18.20;99.90;;;;;;4977663;28;20557;-77
2022/07/29 09:06:13;;;;;;;;;;;18.10;99.90;;;;;;4986195;28;19930;-75
2022/07/29 09:08:42;;;;;;;;;;;18.00;99.90;;;;;;4984815;28;19929;-75
2022/07/29 09:11:09;;;;;;;;;;;18.10;99.90;;;;;;4988621;28;19937;-75
2022/07/29 09:13:36;;;;;;;;;;;18.10;99.90;;;;;;4984756;28;20410;-76
2022/07/29 09:16:03;;;;;;;;;;;18.10;99.90;;;;;;4985913;28;19930;-75
2022/07/29 09:18:37;;;;;;;;;;;18.10;99.90;;;;;;4977392;28;19929;-77
2022/07/29 09:24:03;;;;;;;;;;;18.10;99.90;;;;;;4984501;28;19977;-76
2022/07/29 09:26:30;;;;;;;;;;;18.30;99.90;;;;;;4975798;28;20012;-75
2022/07/29 09:28:57;;;;;;;;;;;18.20;99.90;;;;;;4983964;28;20007;-75
2022/07/29 09:31:32;;;;;;;;;;;18.10;99.90;;;;;;4986436;28;19930;-75
2022/07/29 09:34:00;;;;;;;;;;;18.10;99.90;;;;;;4988791;28;20359;-75
2022/07/29 09:36:26;;;;;;;;;;;18.10;99.90;;;;;;4986829;28;19933;-75
2022/07/29 09:38:58;;;;;;;;;;;18.30;99.90;;;;;;4978704;28;19936;-75
2022/07/29 09:41:26;;;;;;;;;;;18.50;99.90;;;;;;4983488;28;19929;-76
2022/07/29 09:43:56;;;;;;;;;;;18.70;99.90;;;;;;4974623;28;19934;-75
2022/07/29 09:46:24;;;;;;;;;;;18.80;99.90;;;;;;4986615;28;19930;-75
2022/07/29 09:49:06;;;;;;;;;;;19.00;99.90;;;;;;4987674;28;20005;-73
2022/07/29 09:51:34;;;;;;;;;;;19.10;99.90;;;;;;4987310;28;19936;-74
2022/07/29 09:54:03;;;;;;;;;;;19.10;99.90;;;;;;4991341;28;19968;-76
2022/07/29 09:56:41;;;;;;;;;;;19.40;99.90;;;;;;4979072;28;19930;-76
2022/07/29 09:59:08;;;;;;;;;;;19.60;99.90;;;;;;4973434;28;20387;-76
2022/07/29 10:01:35;;;;;;;;;;;19.70;99.90;;;;;;4981941;28;20372;-76
2022/07/29 10:04:03;;;;;;;;;;;19.90;99.90;;;;;;4979769;28;19930;-76
2022/07/29 10:06:30;;;;;;;;;;;20.10;99.90;;;;;;4984376;28;19929;-76
2022/07/29 10:09:07;;;;;;;;;;;20.20;99.90;;;;;;4983121;28;19936;-76
2022/07/29 10:11:34;;;;;;;;;;;20.20;99.90;;;;;;4984062;28;19929;-77
2022/07/29 10:14:03;;;;;;;;;;;20.40;99.90;;;;;;4982764;28;19929;-77
2022/07/29 10:16:32;;;;;;;;;;;20.60;99.90;;;;;;4998510;28;19930;-77
2022/07/29 10:18:59;;;;;;;;;;;21.00;99.90;;;;;;4978141;28;19930;-77
2022/07/29 10:21:26;;;;;;;;;;;21.40;99.90;;;;;;4982441;28;19934;-77
2022/07/29 10:23:53;;;;;;;;;;;22.00;99.90;;;;;;4977955;28;19933;-78
2022/07/29 10:26:20;;;;;;;;;;;22.70;99.90;;;;;;4981354;28;19930;-78
2022/07/29 10:28:47;;;;;;;;;;;23.30;99.90;;;;;;4982770;28;19930;-78
2022/07/29 10:31:19;;;;;;;;;;;23.90;99.90;;;;;;5000341;28;19930;-78
2022/07/29 10:33:52;;;;;;;;;;;24.40;99.90;;;;;;4985846;28;19930;-78
2022/07/29 10:36:25;;;;;;;;;;;24.90;99.90;;;;;;4983242;28;19971;-78
2022/07/29 10:38:58;;;;;;;;;;;25.40;99.90;;;;;;4981704;28;19937;-78
2022/07/29 10:41:34;;;;;;;;;;;25.80;99.90;;;;;;4971760;28;19930;-78
2022/07/29 10:44:01;;;;;;;;;;;26.00;99.90;;;;;;4985622;28;19953;-78
2022/07/29 10:46:35;;;;;;;;;;;26.20;99.90;;;;;;4989094;28;20322;-78
2022/07/29 10:49:08;;;;;;;;;;;26.30;99.90;;;;;;4987220;28;20470;-79
2022/07/29 10:51:56;;;;;;;;;;;26.40;99.90;;;;;;4988492;28;19934;-77
2022/07/29 10:54:39;;;;;;;;;;;26.50;99.90;;;;;;4983360;28;20403;-78
2022/07/29 10:57:16;;;;;;;;;;;26.70;99.90;;;;;;4986140;28;19926;-78
2022/07/29 10:59:43;;;;;;;;;;;26.80;99.90;;;;;;4982390;28;19934;-77
2022/07/29 11:02:30;;;;;;;;;;;26.80;99.90;;;;;;4991453;28;19932;-75
2022/07/29 11:05:03;;;;;;;;;;;26.50;99.90;;;;;;4985574;28;19930;-77
2022/07/29 11:07:30;;;;;;;;;;;26.30;99.90;;;;;;4985625;28;19980;-75
2022/07/29 11:10:15;;;;;;;;;;;26.10;99.90;;;;;;4971511;28;19973;-76
2022/07/29 11:12:50;;;;;;;;;;;26.10;99.90;;;;;;4982039;28;19930;-76
2022/07/29 11:15:20;;;;;;;;;;;26.10;99.90;;;;;;4983809;28;19930;-75
2022/07/29 11:18:05;;;;;;;;;;;26.00;99.90;;;;;;4985319;28;19930;-76
2022/07/29 11:20:35;;;;;;;;;;;26.00;99.90;;;;;;4988135;28;19925;-75
2022/07/29 11:23:02;;;;;;;;;;;25.80;99.90;;;;;;4985790;28;20328;-75
2022/07/29 11:25:29;;;;;;;;;;;25.70;99.90;;;;;;4986140;28;19980;-76
2022/07/29 11:28:09;;;;;;;;;;;25.80;99.90;;;;;;4978048;28;19926;-76
2022/07/29 11:30:49;;;;;;;;;;;26.00;99.90;;;;;;4978207;28;20003;-76
2022/07/29 11:33:27;;;;;;;;;;;26.20;99.90;;;;;;4985422;28;20020;-76
2022/07/29 11:36:09;;;;;;;;;;;26.30;99.90;;;;;;4978070;28;20027;-75
2022/07/29 11:38:36;;;;;;;;;;;26.30;99.90;;;;;;4987544;28;20016;-76
2022/07/29 11:41:20;;;;;;;;;;;26.20;99.90;;;;;;4980007;28;19930;-76
2022/07/29 11:43:47;;;;;;;;;;;26.40;99.90;;;;;;4988700;28;19930;-78
2022/07/29 11:46:14;;;;;;;;;;;26.70;99.90;;;;;;4976756;28;19926;-77
2022/07/29 11:48:42;;;;;;;;;;;27.10;99.90;;;;;;4980936;28;19966;-77
2022/07/29 11:51:11;;;;;;;;;;;27.40;99.90;;;;;;4981716;28;21071;-78
2022/07/29 11:53:38;;;;;;;;;;;27.80;99.90;;;;;;4983903;28;20084;-77
2022/07/29 11:56:08;;;;;;;;;;;28.00;99.90;;;;;;4984557;28;19929;-78
2022/07/29 11:58:37;;;;;;;;;;;28.00;99.90;;;;;;4978866;28;19936;-78
2022/07/29 12:01:04;;;;;;;;;;;28.00;99.90;;;;;;4986038;28;19961;-78
2022/07/29 12:03:31;;;;;;;;;;;28.00;99.90;;;;;;4978669;28;20057;-79
2022/07/29 12:05:58;;;;;;;;;;;28.00;99.90;;;;;;4986971;28;19930;-77
2022/07/29 12:08:27;;;;;;;;;;;28.10;99.90;;;;;;4988504;28;19952;-77
2022/07/29 12:10:54;;;;;;;;;;;28.10;99.90;;;;;;4981540;28;19937;-78
2022/07/29 12:13:21;;;;;;;;;;;28.20;99.90;;;;;;4986241;28;19926;-78
2022/07/29 12:15:54;;;;;;;;;;;28.20;99.90;;;;;;4975903;28;19930;-78
2022/07/29 12:18:21;;;;;;;;;;;28.00;99.90;;;;;;4985681;28;19932;-78
2022/07/29 12:20:48;;;;;;;;;;;27.80;99.90;;;;;;4972280;28;19936;-78
2022/07/29 12:23:16;;;;;;;;;;;27.70;99.90;;;;;;4981854;28;19930;-78
2022/07/29 12:25:45;;;;;;;;;;;27.70;99.90;;;;;;4983991;28;19949;-78
2022/07/29 12:28:13;;;;;;;;;;;27.70;99.90;;;;;;4988647;28;20523;-79
2022/07/29 12:30:41;;;;;;;;;;;27.80;99.90;;;;;;4980361;28;19937;-78
2022/07/29 12:33:12;;;;;;;;;;;27.80;99.90;;;;;;4982250;28;20019;-78
2022/07/29 12:35:39;;;;;;;;;;;27.90;99.90;;;;;;4981111;28;19976;-78
2022/07/29 12:38:06;;;;;;;;;;;28.00;99.90;;;;;;4986295;28;19965;-78
2022/07/29 12:40:32;;;;;;;;;;;28.20;99.90;;;;;;4982012;28;20323;-79
2022/07/29 12:43:07;;;;;;;;;;;28.20;99.90;;;;;;5003710;28;19936;-78
2022/07/29 12:45:35;;;;;;;;;;;28.00;99.90;;;;;;4979160;28;20415;-78
2022/07/29 12:48:03;;;;;;;;;;;28.00;99.90;;;;;;4983640;28;19941;-78
2022/07/29 12:50:31;;;;;;;;;;;28.10;99.90;;;;;;4985475;28;19976;-77
2022/07/29 12:53:09;;;;;;;;;;;28.30;99.90;;;;;;4981996;28;19926;-77
2022/07/29 12:55:39;;;;;;;;;;;28.40;99.90;;;;;;4983387;28;19926;-77
2022/07/29 12:58:07;;;;;;;;;;;28.70;99.90;;;;;;4983085;28;20411;-78
2022/07/29 13:00:34;;;;;;;;;;;29.50;99.90;;;;;;4983923;28;19926;-78
2022/07/29 13:03:04;;;;;;;;;;;28.90;99.90;;;;;;4986396;28;20390;-76
2022/07/29 13:05:41;;;;;;;;;;;28.90;99.90;;;;;;4987449;28;19933;-78
2022/07/29 13:08:11;;;;;;;;;;;28.90;99.90;;;;;;4976327;28;20028;-77
2022/07/29 13:10:38;;;;;;;;;;;28.90;99.90;;;;;;4978397;28;19930;-76
2022/07/29 13:13:07;;;;;;;;;;;29.10;99.90;;;;;;4990570;28;20324;-76
2022/07/29 13:15:36;;;;;;;;;;;29.30;99.90;;;;;;4989973;28;19983;-78
2022/07/29 13:18:04;;;;;;;;;;;29.20;99.90;;;;;;5003535;28;19948;-78
2022/07/29 13:20:31;;;;;;;;;;;29.20;99.90;;;;;;5004874;28;19936;-78
2022/07/29 13:22:59;;;;;;;;;;;29.30;99.90;;;;;;5008863;28;19961;-78
2022/07/29 13:25:28;;;;;;;;;;;29.40;99.90;;;;;;4992131;28;20051;-79
2022/07/29 13:27:55;;;;;;;;;;;29.40;99.90;;;;;;4997326;28;19948;-79
2022/07/29 13:30:25;;;;;;;;;;;29.50;99.90;;;;;;5004716;28;20029;-80
2022/07/29 13:32:54;;;;;;;;;;;29.60;99.90;;;;;;5018006;28;20004;-79
2022/07/29 13:35:21;;;;;;;;;;;29.60;99.90;;;;;;5005104;28;19987;-77
2022/07/29 13:37:48;;;;;;;;;;;29.50;99.90;;;;;;4997728;28;19930;-76
2022/07/29 13:40:16;;;;;;;;;;;29.40;99.90;;;;;;5009812;28;19957;-76
2022/07/29 13:42:44;;;;;;;;;;;29.40;99.90;;;;;;5028131;28;19930;-79
2022/07/29 13:45:12;;;;;;;;;;;29.40;99.90;;;;;;5000161;28;19953;-78
2022/07/29 13:47:39;;;;;;;;;;;29.20;99.90;;;;;;4994845;28;19957;-79
2022/07/29 13:50:52;;;;;;;;;;;28.70;99.90;;;;;;5011566;28;19930;-79
2022/07/29 13:53:36;;;;;;;;;;;28.20;99.90;;;;;;4998274;28;19913;-79
2022/07/29 13:56:05;;;;;;;;;;;27.90;99.90;;;;;;4997774;28;19930;-78
2022/07/29 13:58:32;;;;;;;;;;;27.90;99.90;;;;;;4982654;28;19937;-80
2022/07/29 14:00:59;;;;;;;;;;;28.10;99.90;;;;;;4998382;28;19984;-79
2022/07/29 14:03:26;;;;;;;;;;;28.30;99.90;;;;;;4986163;28;20430;-78
2022/07/29 14:05:53;;;;;;;;;;;28.40;99.90;;;;;;4986078;28;19937;-79
2022/07/29 14:08:19;;;;;;;;;;;28.30;99.90;;;;;;4984676;28;19954;-77
2022/07/29 14:10:47;;;;;;;;;;;28.40;99.90;;;;;;4977471;28;19930;-80
2022/07/29 14:13:14;;;;;;;;;;;28.40;99.90;;;;;;4986251;28;19936;-79
2022/07/29 14:15:40;;;;;;;;;;;28.40;99.90;;;;;;4982997;28;19937;-78
2022/07/29 14:18:07;;;;;;;;;;;28.40;99.90;;;;;;4975685;28;20328;-79
2022/07/29 14:20:34;;;;;;;;;;;28.30;99.90;;;;;;4986776;28;20500;-79
2022/07/29 14:23:01;;;;;;;;;;;28.30;99.90;;;;;;4982728;28;19925;-79
2022/07/29 14:25:28;;;;;;;;;;;28.30;99.90;;;;;;4992077;28;20538;-79
2022/07/29 14:27:56;;;;;;;;;;;28.50;99.90;;;;;;4993668;28;20390;-79
2022/07/29 14:30:23;;;;;;;;;;;28.10;99.90;;;;;;4983799;28;19929;-78
2022/07/29 14:32:49;;;;;;;;;;;27.70;99.90;;;;;;4980304;28;19930;-79
2022/07/29 14:35:16;;;;;;;;;;;27.50;99.90;;;;;;4999710;28;19926;-79
2022/07/29 14:37:43;;;;;;;;;;;27.40;99.90;;;;;;4978446;28;19940;-79